sensor_id;sensor_type;location;lat;lon;timestamp;pressure;altitude;pressure_sealevel;temperature;humidity
31873;BME280;22407;42.820;23.374;2022-07-22T07:44:10;95830.45;;;31.54;33.18
31873;BME280;22407;42.820;23.374;2022-07-22T07:46:39;95824.84;;;31.79;31.74
31873;BME280;22407;42.820;23.374;2022-07-22T07:49:08;95819.80;;;32.08;31.68
31873;BME280;22407;42.820;23.374;2022-07-22T07:51:37;95820.66;;;32.11;31.28
31873;BME280;22407;42.820;23.374;2022-07-22T07:54:06;95822.64;;;32.28;31.61
31873;BME280;22407;42.820;23.374;2022-07-22T07:56:35;95815.05;;;32.54;30.13
31873;BME280;22407;42.820;23.374;2022-07-22T07:59:04;95816.19;;;32.68;30.38
31873;BME280;22407;42.820;23.374;2022-07-22T08:01:33;95819.79;;;33.02;30.47
31873;BME280;22407;42.820;23.374;2022-07-22T08:04:02;95809.64;;;33.23;30.85
31873;BME280;22407;42.820;23.374;2022-07-22T08:06:31;95815.97;;;33.39;30.00
31873;BME280;22407;42.820;23.374;2022-07-22T08:09:00;95818.70;;;33.51;30.25
31873;BME280;22407;42.820;23.374;2022-07-22T08:11:29;95808.54;;;33.39;29.91
31873;BME280;22407;42.820;23.374;2022-07-22T08:13:57;95815.69;;;33.45;29.42
31873;BME280;22407;42.820;23.374;2022-07-22T08:16:26;95814.59;;;33.49;29.05
31873;BME280;22407;42.820;23.374;2022-07-22T08:18:55;95804.42;;;33.37;29.79
31873;BME280;22407;42.820;23.374;2022-07-22T08:21:24;95807.42;;;32.89;29.70
31873;BME280;22407;42.820;23.374;2022-07-22T08:23:53;95802.48;;;33.29;29.55
31873;BME280;22407;42.820;23.374;2022-07-22T08:26:22;95806.06;;;33.45;29.28
31873;BME280;22407;42.820;23.374;2022-07-22T08:28:51;95803.30;;;33.66;29.27
31873;BME280;22407;42.820;23.374;2022-07-22T08:31:20;95807.58;;;34.03;29.65
31873;BME280;22407;42.820;23.374;2022-07-22T08:33:49;95806.19;;;34.18;29.61
31873;BME280;22407;42.820;23.374;2022-07-22T08:36:17;95800.30;;;34.38;28.23
31873;BME280;22407;42.820;23.374;2022-07-22T08:38:46;95799.08;;;34.62;28.12
31873;BME280;22407;42.820;23.374;2022-07-22T08:41:16;95794.26;;;34.85;27.92
31873;BME280;22407;42.820;23.374;2022-07-22T08:43:46;95793.67;;;34.91;27.45
31873;BME280;22407;42.820;23.374;2022-07-22T08:46:15;95791.94;;;35.00;27.16
31873;BME280;22407;42.820;23.374;2022-07-22T08:48:45;95785.22;;;34.77;27.75
31873;BME280;22407;42.820;23.374;2022-07-22T08:51:15;95790.98;;;34.78;26.91
31873;BME280;22407;42.820;23.374;2022-07-22T08:53:44;95786.37;;;35.08;26.41
31873;BME280;22407;42.820;23.374;2022-07-22T08:56:13;95792.47;;;35.37;26.51
31873;BME280;22407;42.820;23.374;2022-07-22T08:58:42;95789.27;;;35.24;26.52
31873;BME280;22407;42.820;23.374;2022-07-22T09:01:14;95788.89;;;35.36;27.45
31873;BME280;22407;42.820;23.374;2022-07-22T09:03:51;95786.42;;;35.35;26.38
31873;BME280;22407;42.820;23.374;2022-07-22T09:06:24;95790.09;;;34.88;25.70
31873;BME280;22407;42.820;23.374;2022-07-22T09:08:58;95790.28;;;35.02;26.81
31873;BME280;22407;42.820;23.374;2022-07-22T09:11:28;95775.62;;;35.06;25.62
31873;BME280;22407;42.820;23.374;2022-07-22T09:13:59;95784.25;;;35.31;25.05
31873;BME280;22407;42.820;23.374;2022-07-22T09:16:42;95782.00;;;35.36;24.92
31873;BME280;22407;42.820;23.374;2022-07-22T09:19:11;95795.00;;;35.60;24.44
31873;BME280;22407;42.820;23.374;2022-07-22T09:21:44;95796.75;;;36.06;23.40
31873;BME280;22407;42.820;23.374;2022-07-22T09:26:58;95789.75;;;36.57;22.59
31873;BME280;22407;42.820;23.374;2022-07-22T09:29:27;95779.40;;;36.46;22.54
31873;BME280;22407;42.820;23.374;2022-07-22T09:31:56;95784.98;;;36.60;22.40
31873;BME280;22407;42.820;23.374;2022-07-22T09:34:30;95790.64;;;36.52;23.01
31873;BME280;22407;42.820;23.374;2022-07-22T09:37:01;95782.45;;;36.45;22.18
31873;BME280;22407;42.820;23.374;2022-07-22T09:39:32;95782.83;;;36.38;22.31
31873;BME280;22407;42.820;23.374;2022-07-22T09:42:03;95784.97;;;36.44;22.00
31873;BME280;22407;42.820;23.374;2022-07-22T09:44:34;95785.16;;;36.28;21.97
31873;BME280;22407;42.820;23.374;2022-07-22T09:47:03;95783.72;;;36.34;22.05
31873;BME280;22407;42.820;23.374;2022-07-22T09:49:36;95769.13;;;36.71;21.74
31873;BME280;22407;42.820;23.374;2022-07-22T09:52:07;95772.93;;;37.10;22.40
31873;BME280;22407;42.820;23.374;2022-07-22T09:54:36;95777.63;;;36.75;21.50
31873;BME280;22407;42.820;23.374;2022-07-22T09:57:06;95764.66;;;36.72;21.72
31873;BME280;22407;42.820;23.374;2022-07-22T09:59:35;95767.04;;;36.79;21.97
31873;BME280;22407;42.820;23.374;2022-07-22T10:02:05;95760.84;;;37.04;21.72
31873;BME280;22407;42.820;23.374;2022-07-22T10:04:35;95768.84;;;37.05;21.85
31873;BME280;22407;42.820;23.374;2022-07-22T10:07:05;95762.28;;;36.66;21.36
31873;BME280;22407;42.820;23.374;2022-07-22T10:09:36;95756.77;;;36.44;21.67
31873;BME280;22407;42.820;23.374;2022-07-22T10:12:07;95759.23;;;36.46;21.92
31873;BME280;22407;42.820;23.374;2022-07-22T10:14:36;95760.84;;;36.71;22.18
31873;BME280;22407;42.820;23.374;2022-07-22T10:17:05;95759.91;;;36.35;21.29
31873;BME280;22407;42.820;23.374;2022-07-22T10:19:35;95759.84;;;36.21;22.88
31873;BME280;22407;42.820;23.374;2022-07-22T10:22:04;95753.77;;;36.60;22.54
31873;BME280;22407;42.820;23.374;2022-07-22T10:24:35;95757.34;;;36.41;21.76
31873;BME280;22407;42.820;23.374;2022-07-22T10:27:05;95753.17;;;36.65;21.82
31873;BME280;22407;42.820;23.374;2022-07-22T10:29:42;95756.25;;;36.80;21.74
31873;BME280;22407;42.820;23.374;2022-07-22T10:37:36;95749.45;;;37.55;21.09
31873;BME280;22407;42.820;23.374;2022-07-22T10:40:15;95741.23;;;37.36;20.86
31873;BME280;22407;42.820;23.374;2022-07-22T10:45:38;95753.13;;;37.52;20.91
31873;BME280;22407;42.820;23.374;2022-07-22T10:48:09;95736.86;;;37.92;19.95
31873;BME280;22407;42.820;23.374;2022-07-22T10:50:45;95743.06;;;38.01;20.78
31873;BME280;22407;42.820;23.374;2022-07-22T10:53:20;95740.36;;;38.12;21.08
31873;BME280;22407;42.820;23.374;2022-07-22T10:56:12;95748.33;;;37.86;20.65
31873;BME280;22407;42.820;23.374;2022-07-22T10:58:47;95744.22;;;37.39;21.05
31873;BME280;22407;42.820;23.374;2022-07-22T11:01:18;95729.81;;;37.40;21.25
31873;BME280;22407;42.820;23.374;2022-07-22T11:03:49;95739.58;;;37.51;20.58
31873;BME280;22407;42.820;23.374;2022-07-22T11:06:31;95746.15;;;37.55;20.95
31873;BME280;22407;42.820;23.374;2022-07-22T11:08:58;95743.67;;;37.70;21.50
31873;BME280;22407;42.820;23.374;2022-07-22T11:11:39;95756.72;;;37.37;20.97
31873;BME280;22407;42.820;23.374;2022-07-22T11:14:18;95752.62;;;37.18;21.47
31873;BME280;22407;42.820;23.374;2022-07-22T11:16:49;95749.00;;;36.84;21.45
31873;BME280;22407;42.820;23.374;2022-07-22T11:19:24;95750.38;;;37.20;21.62
31873;BME280;22407;42.820;23.374;2022-07-22T11:21:56;95745.45;;;37.77;20.33
31873;BME280;22407;42.820;23.374;2022-07-22T11:24:26;95744.59;;;38.07;20.95
31873;BME280;22407;42.820;23.374;2022-07-22T11:26:56;95739.63;;;38.20;19.52
31873;BME280;22407;42.820;23.374;2022-07-22T11:29:28;95752.84;;;38.48;20.37
31873;BME280;22407;42.820;23.374;2022-07-22T11:31:58;95751.52;;;38.21;19.76
31873;BME280;22407;42.820;23.374;2022-07-22T11:34:28;95738.13;;;37.98;19.75
31873;BME280;22407;42.820;23.374;2022-07-22T11:36:57;95740.14;;;38.22;19.45
31873;BME280;22407;42.820;23.374;2022-07-22T11:39:28;95738.91;;;38.01;20.10
31873;BME280;22407;42.820;23.374;2022-07-22T11:41:59;95743.79;;;38.06;20.28
31873;BME280;22407;42.820;23.374;2022-07-22T11:44:31;95757.14;;;37.60;20.47
31873;BME280;22407;42.820;23.374;2022-07-22T11:47:01;95750.14;;;37.65;20.90
31873;BME280;22407;42.820;23.374;2022-07-22T11:49:32;95747.11;;;37.78;20.62
31873;BME280;22407;42.820;23.374;2022-07-22T11:52:03;95744.54;;;37.96;19.74
31873;BME280;22407;42.820;23.374;2022-07-22T11:54:32;95747.94;;;38.20;20.03
31873;BME280;22407;42.820;23.374;2022-07-22T11:57:02;95743.81;;;37.90;19.81
31873;BME280;22407;42.820;23.374;2022-07-22T11:59:31;95744.02;;;38.21;20.48
31873;BME280;22407;42.820;23.374;2022-07-22T12:02:02;95741.54;;;38.33;20.92
31873;BME280;22407;42.820;23.374;2022-07-22T12:04:32;95744.01;;;38.35;19.88
31873;BME280;22407;42.820;23.374;2022-07-22T12:07:02;95734.69;;;38.56;20.24
31873;BME280;22407;42.820;23.374;2022-07-22T12:09:34;95733.00;;;38.69;19.93
31873;BME280;22407;42.820;23.374;2022-07-22T12:12:04;95734.19;;;38.54;19.38
31873;BME280;22407;42.820;23.374;2022-07-22T12:14:34;95748.75;;;38.07;19.52
31873;BME280;22407;42.820;23.374;2022-07-22T12:17:05;95733.35;;;38.28;20.17
31873;BME280;22407;42.820;23.374;2022-07-22T12:19:38;95730.22;;;38.32;19.54
31873;BME280;22407;42.820;23.374;2022-07-22T12:22:29;95737.47;;;38.67;19.93
31873;BME280;22407;42.820;23.374;2022-07-22T12:24:44;95727.78;;;38.79;19.42
31873;BME280;22407;42.820;23.374;2022-07-22T12:27:16;95727.78;;;38.90;19.59
31873;BME280;22407;42.820;23.374;2022-07-22T12:29:47;95730.94;;;38.75;18.99
31873;BME280;22407;42.820;23.374;2022-07-22T12:32:24;95726.13;;;38.41;20.22
31873;BME280;22407;42.820;23.374;2022-07-22T12:37:27;95743.21;;;37.93;19.37
31873;BME280;22407;42.820;23.374;2022-07-22T12:40:11;95734.60;;;38.08;19.57
31873;BME280;22407;42.820;23.374;2022-07-22T12:42:45;95725.85;;;38.29;19.68
31873;BME280;22407;42.820;23.374;2022-07-22T12:45:17;95718.86;;;38.31;19.92
31873;BME280;22407;42.820;23.374;2022-07-22T12:50:44;95729.21;;;37.87;19.48
31873;BME280;22407;42.820;23.374;2022-07-22T12:53:15;95720.91;;;37.87;19.92
31873;BME280;22407;42.820;23.374;2022-07-22T12:55:47;95716.64;;;38.20;19.96
31873;BME280;22407;42.820;23.374;2022-07-22T12:58:19;95728.19;;;37.97;19.81
31873;BME280;22407;42.820;23.374;2022-07-22T13:00:50;95718.95;;;37.87;19.34
31873;BME280;22407;42.820;23.374;2022-07-22T13:03:20;95718.85;;;38.06;19.33
31873;BME280;22407;42.820;23.374;2022-07-22T13:05:57;95716.44;;;38.16;19.98
31873;BME280;22407;42.820;23.374;2022-07-22T13:08:27;95710.42;;;37.98;20.47
31873;BME280;22407;42.820;23.374;2022-07-22T13:10:57;95717.27;;;37.89;20.13
31873;BME280;22407;42.820;23.374;2022-07-22T13:13:26;95716.98;;;37.88;19.59
31873;BME280;22407;42.820;23.374;2022-07-22T13:15:55;95720.44;;;38.24;19.83
31873;BME280;22407;42.820;23.374;2022-07-22T13:18:24;95716.23;;;38.12;19.86
31873;BME280;22407;42.820;23.374;2022-07-22T13:20:53;95726.98;;;37.59;19.82
31873;BME280;22407;42.820;23.374;2022-07-22T13:23:22;95733.39;;;36.75;20.22
31873;BME280;22407;42.820;23.374;2022-07-22T13:25:53;95719.95;;;36.68;20.77
31873;BME280;22407;42.820;23.374;2022-07-22T13:28:22;95719.48;;;37.15;20.87
31873;BME280;22407;42.820;23.374;2022-07-22T13:30:51;95731.05;;;37.47;20.27
31873;BME280;22407;42.820;23.374;2022-07-22T13:33:20;95732.50;;;37.45;20.18
31873;BME280;22407;42.820;23.374;2022-07-22T13:35:49;95724.68;;;37.33;20.57
31873;BME280;22407;42.820;23.374;2022-07-22T13:38:18;95721.67;;;37.62;21.30
31873;BME280;22407;42.820;23.374;2022-07-22T13:40:47;95712.05;;;37.74;20.91
31873;BME280;22407;42.820;23.374;2022-07-22T13:43:20;95733.61;;;37.60;19.95
31873;BME280;22407;42.820;23.374;2022-07-22T13:45:51;95728.98;;;37.25;20.81
31873;BME280;22407;42.820;23.374;2022-07-22T13:48:21;95733.51;;;37.19;20.64
31873;BME280;22407;42.820;23.374;2022-07-22T13:50:50;95723.34;;;37.30;20.64
31873;BME280;22407;42.820;23.374;2022-07-22T13:53:19;95729.86;;;37.37;20.80
31873;BME280;22407;42.820;23.374;2022-07-22T13:55:47;95721.97;;;37.30;20.93
31873;BME280;22407;42.820;23.374;2022-07-22T13:58:16;95723.03;;;36.83;21.04
31873;BME280;22407;42.820;23.374;2022-07-22T14:00:45;95728.14;;;37.25;21.35
31873;BME280;22407;42.820;23.374;2022-07-22T14:03:15;95725.98;;;37.38;20.80
31873;BME280;22407;42.820;23.374;2022-07-22T14:05:44;95731.70;;;37.42;20.70
31873;BME280;22407;42.820;23.374;2022-07-22T14:08:13;95735.31;;;37.09;20.66
31873;BME280;22407;42.820;23.374;2022-07-22T14:10:42;95730.34;;;37.09;20.56
31873;BME280;22407;42.820;23.374;2022-07-22T14:13:11;95730.74;;;37.19;21.12
31873;BME280;22407;42.820;23.374;2022-07-22T14:15:40;95737.94;;;37.20;20.75
31873;BME280;22407;42.820;23.374;2022-07-22T14:18:08;95729.31;;;37.05;21.14
31873;BME280;22407;42.820;23.374;2022-07-22T14:20:38;95731.16;;;37.09;20.78
31873;BME280;22407;42.820;23.374;2022-07-22T14:23:08;95729.72;;;36.96;20.92
31873;BME280;22407;42.820;23.374;2022-07-22T14:25:41;95732.98;;;36.84;21.10
31873;BME280;22407;42.820;23.374;2022-07-22T14:28:10;95728.98;;;37.06;21.52
31873;BME280;22407;42.820;23.374;2022-07-22T14:30:39;95732.12;;;36.86;21.31
31873;BME280;22407;42.820;23.374;2022-07-22T14:33:07;95729.76;;;36.77;21.48
31873;BME280;22407;42.820;23.374;2022-07-22T14:35:36;95722.98;;;36.69;21.92
31873;BME280;22407;42.820;23.374;2022-07-22T14:38:05;95720.22;;;37.02;21.34
31873;BME280;22407;42.820;23.374;2022-07-22T14:40:34;95721.75;;;37.10;21.68
31873;BME280;22407;42.820;23.374;2022-07-22T14:43:03;95724.84;;;36.74;21.66
31873;BME280;22407;42.820;23.374;2022-07-22T14:45:32;95723.84;;;36.48;21.37
31873;BME280;22407;42.820;23.374;2022-07-22T14:48:01;95729.45;;;36.21;21.89
31873;BME280;22407;42.820;23.374;2022-07-22T14:50:30;95721.73;;;36.21;21.90
31873;BME280;22407;42.820;23.374;2022-07-22T14:52:59;95724.84;;;36.55;21.73
31873;BME280;22407;42.820;23.374;2022-07-22T14:55:28;95723.87;;;36.64;21.85
31873;BME280;22407;42.820;23.374;2022-07-22T14:57:57;95718.42;;;36.95;20.94
31873;BME280;22407;42.820;23.374;2022-07-22T15:00:26;95718.88;;;36.83;21.37
31873;BME280;22407;42.820;23.374;2022-07-22T15:02:55;95722.79;;;37.15;21.70
31873;BME280;22407;42.820;23.374;2022-07-22T15:05:24;95718.20;;;37.07;21.01
31873;BME280;22407;42.820;23.374;2022-07-22T15:07:53;95723.17;;;36.53;21.68
31873;BME280;22407;42.820;23.374;2022-07-22T15:10:23;95717.59;;;36.78;21.74
31873;BME280;22407;42.820;23.374;2022-07-22T15:12:52;95724.30;;;36.90;21.25
31873;BME280;22407;42.820;23.374;2022-07-22T15:15:20;95726.32;;;37.01;20.70
31873;BME280;22407;42.820;23.374;2022-07-22T15:17:49;95723.45;;;37.25;20.65
31873;BME280;22407;42.820;23.374;2022-07-22T15:20:18;95719.83;;;37.11;20.07
31873;BME280;22407;42.820;23.374;2022-07-22T15:22:47;95717.11;;;37.06;20.44
31873;BME280;22407;42.820;23.374;2022-07-22T15:25:16;95729.62;;;37.36;19.76
31873;BME280;22407;42.820;23.374;2022-07-22T15:27:45;95724.30;;;37.53;19.58
31873;BME280;22407;42.820;23.374;2022-07-22T15:30:14;95717.60;;;37.10;20.34
31873;BME280;22407;42.820;23.374;2022-07-22T15:32:42;95721.37;;;37.47;20.25
31873;BME280;22407;42.820;23.374;2022-07-22T15:35:11;95722.99;;;37.65;19.69
31873;BME280;22407;42.820;23.374;2022-07-22T15:37:40;95727.26;;;37.60;20.36
31873;BME280;22407;42.820;23.374;2022-07-22T15:40:10;95720.55;;;37.91;19.76
31873;BME280;22407;42.820;23.374;2022-07-22T15:42:40;95726.55;;;37.68;20.21
31873;BME280;22407;42.820;23.374;2022-07-22T15:45:09;95726.50;;;37.54;19.91
31873;BME280;22407;42.820;23.374;2022-07-22T15:47:39;95732.91;;;37.38;20.26
31873;BME280;22407;42.820;23.374;2022-07-22T15:50:08;95725.19;;;36.69;20.98
31873;BME280;22407;42.820;23.374;2022-07-22T15:52:37;95726.02;;;37.03;21.31
31873;BME280;22407;42.820;23.374;2022-07-22T15:55:07;95720.22;;;37.02;21.09
31873;BME280;22407;42.820;23.374;2022-07-22T15:57:36;95719.05;;;36.72;21.15
31873;BME280;22407;42.820;23.374;2022-07-22T16:00:23;95715.89;;;36.22;21.54
31873;BME280;22407;42.820;23.374;2022-07-22T16:02:52;95721.66;;;36.02;22.07
31873;BME280;22407;42.820;23.374;2022-07-22T16:05:21;95722.06;;;35.71;22.31
31873;BME280;22407;42.820;23.374;2022-07-22T16:07:50;95718.08;;;35.53;22.72
31873;BME280;22407;42.820;23.374;2022-07-22T16:10:19;95728.38;;;35.45;22.88
31873;BME280;22407;42.820;23.374;2022-07-22T16:12:49;95733.89;;;35.45;22.93
31873;BME280;22407;42.820;23.374;2022-07-22T16:15:17;95731.38;;;35.22;23.02
31873;BME280;22407;42.820;23.374;2022-07-22T16:17:46;95730.77;;;34.93;23.88
31873;BME280;22407;42.820;23.374;2022-07-22T16:20:15;95734.59;;;34.60;23.49
31873;BME280;22407;42.820;23.374;2022-07-22T16:22:45;95737.18;;;34.44;23.75
31873;BME280;22407;42.820;23.374;2022-07-22T16:25:14;95740.11;;;34.13;24.83
31873;BME280;22407;42.820;23.374;2022-07-22T16:27:43;95742.58;;;34.07;24.09
31873;BME280;22407;42.820;23.374;2022-07-22T16:30:12;95751.47;;;33.88;24.56
31873;BME280;22407;42.820;23.374;2022-07-22T16:32:42;95750.48;;;33.64;24.84
31873;BME280;22407;42.820;23.374;2022-07-22T16:35:10;95751.83;;;33.69;24.69
31873;BME280;22407;42.820;23.374;2022-07-22T16:37:39;95751.89;;;33.33;24.72
31873;BME280;22407;42.820;23.374;2022-07-22T16:40:11;95751.66;;;33.11;25.00
31873;BME280;22407;42.820;23.374;2022-07-22T16:42:40;95748.87;;;32.91;25.26
31873;BME280;22407;42.820;23.374;2022-07-22T16:45:10;95755.17;;;32.71;25.84
31873;BME280;22407;42.820;23.374;2022-07-22T16:47:39;95760.66;;;32.58;25.53
31873;BME280;22407;42.820;23.374;2022-07-22T16:50:09;95754.86;;;32.47;25.81
31873;BME280;22407;42.820;23.374;2022-07-22T16:52:38;95757.02;;;32.35;26.19
31873;BME280;22407;42.820;23.374;2022-07-22T16:55:07;95758.38;;;32.22;26.37
31873;BME280;22407;42.820;23.374;2022-07-22T16:57:36;95758.60;;;32.13;27.25
31873;BME280;22407;42.820;23.374;2022-07-22T17:00:06;95764.57;;;31.97;27.18
31873;BME280;22407;42.820;23.374;2022-07-22T17:02:35;95769.72;;;31.85;27.35
31873;BME280;22407;42.820;23.374;2022-07-22T17:05:05;95765.30;;;31.79;27.18
31873;BME280;22407;42.820;23.374;2022-07-22T17:07:34;95763.36;;;31.72;27.19
31873;BME280;22407;42.820;23.374;2022-07-22T17:10:04;95761.05;;;31.51;27.46
31873;BME280;22407;42.820;23.374;2022-07-22T17:12:33;95774.67;;;31.41;27.74
31873;BME280;22407;42.820;23.374;2022-07-22T17:15:03;95768.55;;;31.26;28.00
31873;BME280;22407;42.820;23.374;2022-07-22T17:17:32;95770.97;;;31.20;28.44
31873;BME280;22407;42.820;23.374;2022-07-22T17:20:01;95764.68;;;30.87;29.30
31873;BME280;22407;42.820;23.374;2022-07-22T17:22:30;95767.06;;;30.81;29.50
31873;BME280;22407;42.820;23.374;2022-07-22T17:25:00;95769.64;;;30.60;29.75
31873;BME280;22407;42.820;23.374;2022-07-22T17:27:29;95769.44;;;30.69;29.91
31873;BME280;22407;42.820;23.374;2022-07-22T17:29:58;95768.80;;;30.33;30.82
31873;BME280;22407;42.820;23.374;2022-07-22T17:32:27;95776.94;;;30.27;31.29
31873;BME280;22407;42.820;23.374;2022-07-22T17:34:56;95769.77;;;30.24;31.25
31873;BME280;22407;42.820;23.374;2022-07-22T17:37:25;95770.41;;;29.84;31.88
31873;BME280;22407;42.820;23.374;2022-07-22T17:39:54;95776.59;;;29.75;32.47
31873;BME280;22407;42.820;23.374;2022-07-22T17:42:23;95770.21;;;29.49;32.33
31873;BME280;22407;42.820;23.374;2022-07-22T17:44:52;95778.20;;;29.54;32.29
31873;BME280;22407;42.820;23.374;2022-07-22T17:47:21;95775.81;;;29.40;32.09
31873;BME280;22407;42.820;23.374;2022-07-22T17:49:50;95776.50;;;29.50;31.79
31873;BME280;22407;42.820;23.374;2022-07-22T17:52:19;95788.27;;;29.31;31.84
31873;BME280;22407;42.820;23.374;2022-07-22T17:54:47;95782.88;;;29.19;32.52
31873;BME280;22407;42.820;23.374;2022-07-22T17:57:16;95783.10;;;29.01;32.76
31873;BME280;22407;42.820;23.374;2022-07-22T17:59:45;95780.20;;;28.90;32.95
31873;BME280;22407;42.820;23.374;2022-07-22T18:02:14;95784.02;;;28.89;32.87
31873;BME280;22407;42.820;23.374;2022-07-22T18:04:43;95788.70;;;28.75;32.83
31873;BME280;22407;42.820;23.374;2022-07-22T18:07:12;95793.30;;;28.43;34.89
31873;BME280;22407;42.820;23.374;2022-07-22T18:09:40;95794.94;;;28.29;35.48
31873;BME280;22407;42.820;23.374;2022-07-22T18:12:09;95805.58;;;28.28;35.69
31873;BME280;22407;42.820;23.374;2022-07-22T18:14:38;95796.69;;;28.21;35.23
31873;BME280;22407;42.820;23.374;2022-07-22T18:17:07;95805.50;;;27.85;36.37
31873;BME280;22407;42.820;23.374;2022-07-22T18:19:37;95807.41;;;27.73;36.42
31873;BME280;22407;42.820;23.374;2022-07-22T18:22:05;95819.84;;;27.31;38.00
31873;BME280;22407;42.820;23.374;2022-07-22T18:24:36;95820.80;;;27.04;38.76
31873;BME280;22407;42.820;23.374;2022-07-22T18:27:04;95827.04;;;26.81;39.29
31873;BME280;22407;42.820;23.374;2022-07-22T18:29:34;95821.33;;;26.71;39.53
31873;BME280;22407;42.820;23.374;2022-07-22T18:32:03;95817.92;;;26.45;39.81
31873;BME280;22407;42.820;23.374;2022-07-22T18:34:31;95822.42;;;26.60;39.91
31873;BME280;22407;42.820;23.374;2022-07-22T18:37:00;95832.57;;;26.14;40.95
31873;BME280;22407;42.820;23.374;2022-07-22T18:39:29;95831.97;;;26.21;41.22
31873;BME280;22407;42.820;23.374;2022-07-22T18:41:59;95839.25;;;25.90;42.12
31873;BME280;22407;42.820;23.374;2022-07-22T18:44:28;95849.49;;;25.60;42.91
31873;BME280;22407;42.820;23.374;2022-07-22T18:46:57;95846.06;;;25.37;43.02
31873;BME280;22407;42.820;23.374;2022-07-22T18:49:26;95849.85;;;25.20;43.49
31873;BME280;22407;42.820;23.374;2022-07-22T18:51:55;95856.05;;;25.02;43.81
31873;BME280;22407;42.820;23.374;2022-07-22T18:54:24;95861.96;;;24.93;44.27
31873;BME280;22407;42.820;23.374;2022-07-22T18:56:53;95862.55;;;24.70;44.99
31873;BME280;22407;42.820;23.374;2022-07-22T18:59:23;95865.50;;;24.45;45.82
31873;BME280;22407;42.820;23.374;2022-07-22T19:01:52;95868.25;;;24.39;46.29
31873;BME280;22407;42.820;23.374;2022-07-22T19:04:21;95870.22;;;24.18;46.17
31873;BME280;22407;42.820;23.374;2022-07-22T19:06:50;95873.60;;;24.30;45.88
31873;BME280;22407;42.820;23.374;2022-07-22T19:09:19;95873.97;;;24.17;45.60
31873;BME280;22407;42.820;23.374;2022-07-22T19:11:48;95886.79;;;23.90;46.27
31873;BME280;22407;42.820;23.374;2022-07-22T19:14:17;95880.48;;;23.60;47.21
31873;BME280;22407;42.820;23.374;2022-07-22T19:16:46;95890.94;;;23.43;47.74
31873;BME280;22407;42.820;23.374;2022-07-22T19:19:15;95899.98;;;23.46;47.56
31873;BME280;22407;42.820;23.374;2022-07-22T19:21:44;95898.02;;;23.38;47.48
31873;BME280;22407;42.820;23.374;2022-07-22T19:24:13;95899.25;;;23.48;47.05
31873;BME280;22407;42.820;23.374;2022-07-22T19:26:41;95898.24;;;23.16;47.64
31873;BME280;22407;42.820;23.374;2022-07-22T19:29:11;95905.63;;;23.32;47.45
31873;BME280;22407;42.820;23.374;2022-07-22T19:31:40;95902.63;;;23.24;47.71
31873;BME280;22407;42.820;23.374;2022-07-22T19:34:09;95906.27;;;23.07;48.17
31873;BME280;22407;42.820;23.374;2022-07-22T19:36:37;95903.08;;;22.83;49.08
31873;BME280;22407;42.820;23.374;2022-07-22T19:39:06;95905.59;;;22.98;47.79
31873;BME280;22407;42.820;23.374;2022-07-22T19:41:35;95909.93;;;22.73;48.73
31873;BME280;22407;42.820;23.374;2022-07-22T19:44:04;95908.48;;;22.70;48.48
31873;BME280;22407;42.820;23.374;2022-07-22T19:46:33;95912.00;;;22.64;48.58
31873;BME280;22407;42.820;23.374;2022-07-22T19:49:02;95914.60;;;22.61;48.80
31873;BME280;22407;42.820;23.374;2022-07-22T19:51:31;95917.31;;;22.61;48.82
31873;BME280;22407;42.820;23.374;2022-07-22T19:54:00;95928.12;;;22.61;48.76
31873;BME280;22407;42.820;23.374;2022-07-22T19:56:29;95922.00;;;22.70;48.17
31873;BME280;22407;42.820;23.374;2022-07-22T19:58:58;95931.54;;;22.53;48.98
31873;BME280;22407;42.820;23.374;2022-07-22T20:01:27;95916.78;;;22.62;48.31
31873;BME280;22407;42.820;23.374;2022-07-22T20:03:57;95924.78;;;22.53;48.59
31873;BME280;22407;42.820;23.374;2022-07-22T20:06:26;95919.92;;;22.65;48.16
31873;BME280;22407;42.820;23.374;2022-07-22T20:08:55;95926.77;;;22.31;49.20
31873;BME280;22407;42.820;23.374;2022-07-22T20:11:24;95923.94;;;22.11;50.04
31873;BME280;22407;42.820;23.374;2022-07-22T20:13:53;95917.73;;;22.28;49.51
31873;BME280;22407;42.820;23.374;2022-07-22T20:16:22;95925.13;;;22.30;49.19
31873;BME280;22407;42.820;23.374;2022-07-22T20:18:51;95928.94;;;21.90;50.96
31873;BME280;22407;42.820;23.374;2022-07-22T20:21:20;95931.63;;;21.90;51.36
31873;BME280;22407;42.820;23.374;2022-07-22T20:23:49;95924.08;;;21.96;50.33
31873;BME280;22407;42.820;23.374;2022-07-22T20:26:20;95928.08;;;21.82;50.85
31873;BME280;22407;42.820;23.374;2022-07-22T20:28:49;95930.84;;;21.96;50.61
31873;BME280;22407;42.820;23.374;2022-07-22T20:31:19;95926.84;;;21.85;51.47
31873;BME280;22407;42.820;23.374;2022-07-22T20:33:49;95930.22;;;21.76;51.14
31873;BME280;22407;42.820;23.374;2022-07-22T20:36:17;95927.58;;;21.90;50.51
31873;BME280;22407;42.820;23.374;2022-07-22T20:38:46;95930.89;;;21.85;50.55
31873;BME280;22407;42.820;23.374;2022-07-22T20:41:15;95937.69;;;21.57;51.90
31873;BME280;22407;42.820;23.374;2022-07-22T20:43:44;95939.23;;;21.55;52.24
31873;BME280;22407;42.820;23.374;2022-07-22T20:46:13;95943.69;;;21.52;52.48
31873;BME280;22407;42.820;23.374;2022-07-22T20:48:42;95931.60;;;21.26;52.96
31873;BME280;22407;42.820;23.374;2022-07-22T20:51:11;95944.42;;;21.07;54.10
31873;BME280;22407;42.820;23.374;2022-07-22T20:53:40;95945.50;;;21.02;54.03
31873;BME280;22407;42.820;23.374;2022-07-22T20:56:09;95945.62;;;21.26;53.75
31873;BME280;22407;42.820;23.374;2022-07-22T20:58:38;95953.72;;;21.26;53.25
31873;BME280;22407;42.820;23.374;2022-07-22T21:01:07;95949.25;;;20.90;54.36
31873;BME280;22407;42.820;23.374;2022-07-22T21:03:36;95960.16;;;20.82;55.49